sensor_id;sensor_type;location;lat;lon;timestamp;P1;durP1;ratioP1;P2;durP2;ratioP2
56567;SDS011;42456;49.956;20.004;2024-02-15T00:01:00;30.40;;;13.50;;
56567;SDS011;42456;49.956;20.004;2024-02-15T00:03:27;32.00;;;14.50;;
56567;SDS011;42456;49.956;20.004;2024-02-15T00:05:54;28.70;;;12.50;;
56567;SDS011;42456;49.956;20.004;2024-02-15T00:08:21;32.20;;;14.30;;
56567;SDS011;42456;49.956;20.004;2024-02-15T00:10:47;28.10;;;14.10;;
56567;SDS011;42456;49.956;20.004;2024-02-15T00:13:14;28.10;;;14.30;;
56567;SDS011;42456;49.956;20.004;2024-02-15T00:15:41;30.20;;;14.50;;
56567;SDS011;42456;49.956;20.004;2024-02-15T00:18:08;31.70;;;14.50;;
56567;SDS011;42456;49.956;20.004;2024-02-15T00:20:35;29.30;;;13.20;;
56567;SDS011;42456;49.956;20.004;2024-02-15T00:23:03;29.10;;;13.30;;
56567;SDS011;42456;49.956;20.004;2024-02-15T00:25:29;30.00;;;13.60;;
56567;SDS011;42456;49.956;20.004;2024-02-15T00:27:57;28.40;;;13.30;;
56567;SDS011;42456;49.956;20.004;2024-02-15T00:30:24;27.20;;;13.70;;
56567;SDS011;42456;49.956;20.004;2024-02-15T00:32:51;28.90;;;13.20;;
56567;SDS011;42456;49.956;20.004;2024-02-15T00:35:18;28.30;;;13.90;;
56567;SDS011;42456;49.956;20.004;2024-02-15T00:37:46;26.50;;;12.80;;
56567;SDS011;42456;49.956;20.004;2024-02-15T00:40:13;28.20;;;13.50;;
56567;SDS011;42456;49.956;20.004;2024-02-15T00:42:40;27.00;;;13.30;;
56567;SDS011;42456;49.956;20.004;2024-02-15T00:45:07;26.70;;;12.10;;
56567;SDS011;42456;49.956;20.004;2024-02-15T00:47:36;28.60;;;13.20;;
56567;SDS011;42456;49.956;20.004;2024-02-15T00:50:05;22.10;;;11.50;;
56567;SDS011;42456;49.956;20.004;2024-02-15T00:52:33;27.80;;;12.60;;
56567;SDS011;42456;49.956;20.004;2024-02-15T00:55:00;25.40;;;12.10;;
56567;SDS011;42456;49.956;20.004;2024-02-15T00:57:27;23.50;;;11.70;;
56567;SDS011;42456;49.956;20.004;2024-02-15T00:59:54;24.30;;;12.00;;
56567;SDS011;42456;49.956;20.004;2024-02-15T01:02:21;24.70;;;11.10;;
56567;SDS011;42456;49.956;20.004;2024-02-15T01:04:48;25.50;;;11.60;;
56567;SDS011;42456;49.956;20.004;2024-02-15T01:07:16;26.40;;;11.40;;
56567;SDS011;42456;49.956;20.004;2024-02-15T01:09:43;24.50;;;10.90;;
56567;SDS011;42456;49.956;20.004;2024-02-15T01:12:09;20.00;;;9.90;;
56567;SDS011;42456;49.956;20.004;2024-02-15T01:14:37;19.70;;;9.40;;
56567;SDS011;42456;49.956;20.004;2024-02-15T01:17:04;21.20;;;9.70;;
56567;SDS011;42456;49.956;20.004;2024-02-15T01:19:31;21.60;;;9.40;;
56567;SDS011;42456;49.956;20.004;2024-02-15T01:21:58;21.70;;;9.30;;
56567;SDS011;42456;49.956;20.004;2024-02-15T01:24:26;19.20;;;8.70;;
56567;SDS011;42456;49.956;20.004;2024-02-15T01:26:53;19.80;;;9.60;;
56567;SDS011;42456;49.956;20.004;2024-02-15T01:29:21;20.30;;;9.20;;
56567;SDS011;42456;49.956;20.004;2024-02-15T01:31:47;20.00;;;9.80;;
56567;SDS011;42456;49.956;20.004;2024-02-15T01:34:15;21.00;;;8.40;;
56567;SDS011;42456;49.956;20.004;2024-02-15T01:36:42;17.90;;;8.60;;
56567;SDS011;42456;49.956;20.004;2024-02-15T01:39:09;21.10;;;9.30;;
56567;SDS011;42456;49.956;20.004;2024-02-15T01:41:36;21.10;;;9.20;;
56567;SDS011;42456;49.956;20.004;2024-02-15T01:44:04;20.30;;;9.10;;
56567;SDS011;42456;49.956;20.004;2024-02-15T01:46:32;22.70;;;9.30;;
56567;SDS011;42456;49.956;20.004;2024-02-15T01:49:00;20.20;;;9.30;;
56567;SDS011;42456;49.956;20.004;2024-02-15T01:51:27;21.50;;;8.60;;
56567;SDS011;42456;49.956;20.004;2024-02-15T01:53:54;19.90;;;9.10;;
56567;SDS011;42456;49.956;20.004;2024-02-15T01:56:22;18.80;;;8.50;;
56567;SDS011;42456;49.956;20.004;2024-02-15T01:58:52;20.00;;;9.40;;
56567;SDS011;42456;49.956;20.004;2024-02-15T02:01:19;19.60;;;9.90;;
56567;SDS011;42456;49.956;20.004;2024-02-15T02:03:47;20.80;;;10.00;;
56567;SDS011;42456;49.956;20.004;2024-02-15T02:06:14;28.30;;;12.20;;
56567;SDS011;42456;49.956;20.004;2024-02-15T02:08:42;22.90;;;10.10;;
56567;SDS011;42456;49.956;20.004;2024-02-15T02:11:09;23.70;;;10.50;;
56567;SDS011;42456;49.956;20.004;2024-02-15T02:13:36;23.30;;;10.60;;
56567;SDS011;42456;49.956;20.004;2024-02-15T02:16:03;22.20;;;10.30;;
56567;SDS011;42456;49.956;20.004;2024-02-15T02:18:30;24.20;;;10.90;;
56567;SDS011;42456;49.956;20.004;2024-02-15T02:20:58;20.70;;;9.60;;
56567;SDS011;42456;49.956;20.004;2024-02-15T02:23:25;22.40;;;10.90;;
56567;SDS011;42456;49.956;20.004;2024-02-15T02:25:54;21.10;;;10.20;;
56567;SDS011;42456;49.956;20.004;2024-02-15T02:28:22;20.70;;;10.50;;
56567;SDS011;42456;49.956;20.004;2024-02-15T02:30:49;22.90;;;10.40;;
56567;SDS011;42456;49.956;20.004;2024-02-15T02:33:16;22.20;;;10.10;;
56567;SDS011;42456;49.956;20.004;2024-02-15T02:35:49;22.60;;;10.70;;
56567;SDS011;42456;49.956;20.004;2024-02-15T02:38:17;20.60;;;9.40;;
56567;SDS011;42456;49.956;20.004;2024-02-15T02:40:44;23.00;;;9.50;;
56567;SDS011;42456;49.956;20.004;2024-02-15T02:43:10;23.60;;;10.50;;
56567;SDS011;42456;49.956;20.004;2024-02-15T02:45:38;23.30;;;11.20;;
56567;SDS011;42456;49.956;20.004;2024-02-15T02:48:05;21.10;;;10.00;;
56567;SDS011;42456;49.956;20.004;2024-02-15T02:50:32;22.00;;;9.90;;
56567;SDS011;42456;49.956;20.004;2024-02-15T02:52:59;20.10;;;9.70;;
56567;SDS011;42456;49.956;20.004;2024-02-15T02:55:26;23.70;;;10.40;;
56567;SDS011;42456;49.956;20.004;2024-02-15T02:57:57;20.60;;;9.20;;
56567;SDS011;42456;49.956;20.004;2024-02-15T03:00:24;20.60;;;9.30;;
56567;SDS011;42456;49.956;20.004;2024-02-15T03:02:51;22.10;;;9.70;;
56567;SDS011;42456;49.956;20.004;2024-02-15T03:05:18;20.40;;;9.50;;
56567;SDS011;42456;49.956;20.004;2024-02-15T03:07:48;19.20;;;9.10;;
56567;SDS011;42456;49.956;20.004;2024-02-15T03:10:15;19.60;;;9.40;;
56567;SDS011;42456;49.956;20.004;2024-02-15T03:12:42;21.80;;;9.70;;
56567;SDS011;42456;49.956;20.004;2024-02-15T03:15:15;21.50;;;9.60;;
56567;SDS011;42456;49.956;20.004;2024-02-15T03:17:45;23.40;;;10.10;;
56567;SDS011;42456;49.956;20.004;2024-02-15T03:20:12;22.40;;;10.70;;
56567;SDS011;42456;49.956;20.004;2024-02-15T03:22:56;23.30;;;11.00;;
56567;SDS011;42456;49.956;20.004;2024-02-15T03:25:24;23.80;;;10.90;;
56567;SDS011;42456;49.956;20.004;2024-02-15T03:27:53;23.60;;;11.30;;
56567;SDS011;42456;49.956;20.004;2024-02-15T03:30:22;24.10;;;11.30;;
56567;SDS011;42456;49.956;20.004;2024-02-15T03:32:53;23.60;;;10.60;;
56567;SDS011;42456;49.956;20.004;2024-02-15T03:35:22;22.60;;;10.70;;
56567;SDS011;42456;49.956;20.004;2024-02-15T03:37:50;22.90;;;10.80;;
56567;SDS011;42456;49.956;20.004;2024-02-15T03:40:22;21.80;;;10.10;;
56567;SDS011;42456;49.956;20.004;2024-02-15T03:42:53;28.40;;;11.70;;
56567;SDS011;42456;49.956;20.004;2024-02-15T03:45:20;26.70;;;11.20;;
56567;SDS011;42456;49.956;20.004;2024-02-15T03:47:52;29.50;;;12.20;;
56567;SDS011;42456;49.956;20.004;2024-02-15T03:50:19;27.10;;;12.60;;
56567;SDS011;42456;49.956;20.004;2024-02-15T03:52:49;24.80;;;12.60;;
56567;SDS011;42456;49.956;20.004;2024-02-15T03:55:19;24.10;;;11.00;;
56567;SDS011;42456;49.956;20.004;2024-02-15T04:00:15;14.90;;;7.20;;
56567;SDS011;42456;49.956;20.004;2024-02-15T04:02:48;15.90;;;7.20;;
56567;SDS011;42456;49.956;20.004;2024-02-15T04:05:16;20.00;;;8.30;;
56567;SDS011;42456;49.956;20.004;2024-02-15T04:07:45;24.40;;;9.40;;
56567;SDS011;42456;49.956;20.004;2024-02-15T04:10:12;23.00;;;10.40;;
56567;SDS011;42456;49.956;20.004;2024-02-15T04:12:40;23.80;;;12.10;;
56567;SDS011;42456;49.956;20.004;2024-02-15T04:15:10;24.30;;;10.50;;
56567;SDS011;42456;49.956;20.004;2024-02-15T04:17:44;23.50;;;10.40;;
56567;SDS011;42456;49.956;20.004;2024-02-15T04:20:12;23.00;;;11.10;;
56567;SDS011;42456;49.956;20.004;2024-02-15T04:22:41;19.80;;;10.70;;
56567;SDS011;42456;49.956;20.004;2024-02-15T04:25:10;23.80;;;10.30;;
56567;SDS011;42456;49.956;20.004;2024-02-15T04:27:44;25.80;;;11.20;;
56567;SDS011;42456;49.956;20.004;2024-02-15T04:30:13;22.70;;;9.20;;
56567;SDS011;42456;49.956;20.004;2024-02-15T04:32:43;18.20;;;7.90;;
56567;SDS011;42456;49.956;20.004;2024-02-15T04:35:10;20.10;;;9.10;;
56567;SDS011;42456;49.956;20.004;2024-02-15T04:37:40;20.30;;;8.40;;
56567;SDS011;42456;49.956;20.004;2024-02-15T04:40:07;19.00;;;8.50;;
56567;SDS011;42456;49.956;20.004;2024-02-15T04:42:37;19.60;;;8.70;;
56567;SDS011;42456;49.956;20.004;2024-02-15T04:45:08;17.90;;;8.80;;
56567;SDS011;42456;49.956;20.004;2024-02-15T04:47:37;21.70;;;10.10;;
56567;SDS011;42456;49.956;20.004;2024-02-15T04:50:07;19.80;;;8.20;;
56567;SDS011;42456;49.956;20.004;2024-02-15T04:52:35;18.50;;;8.70;;
56567;SDS011;42456;49.956;20.004;2024-02-15T04:55:02;16.90;;;7.90;;
56567;SDS011;42456;49.956;20.004;2024-02-15T05:00:01;14.40;;;7.20;;
56567;SDS011;42456;49.956;20.004;2024-02-15T05:02:37;19.90;;;8.70;;
56567;SDS011;42456;49.956;20.004;2024-02-15T05:05:08;17.90;;;8.10;;
56567;SDS011;42456;49.956;20.004;2024-02-15T05:07:36;19.60;;;8.40;;
56567;SDS011;42456;49.956;20.004;2024-02-15T05:10:06;18.20;;;8.10;;
56567;SDS011;42456;49.956;20.004;2024-02-15T05:12:37;17.40;;;7.60;;
56567;SDS011;42456;49.956;20.004;2024-02-15T05:15:07;16.30;;;8.00;;
56567;SDS011;42456;49.956;20.004;2024-02-15T05:17:39;19.10;;;8.20;;
56567;SDS011;42456;49.956;20.004;2024-02-15T05:20:11;16.70;;;8.30;;
56567;SDS011;42456;49.956;20.004;2024-02-15T05:22:40;19.30;;;7.90;;
56567;SDS011;42456;49.956;20.004;2024-02-15T05:25:16;17.70;;;8.20;;
56567;SDS011;42456;49.956;20.004;2024-02-15T05:27:51;17.50;;;8.50;;
56567;SDS011;42456;49.956;20.004;2024-02-15T05:30:22;17.60;;;8.00;;
56567;SDS011;42456;49.956;20.004;2024-02-15T05:32:50;16.90;;;7.70;;
56567;SDS011;42456;49.956;20.004;2024-02-15T05:35:20;16.90;;;8.30;;
56567;SDS011;42456;49.956;20.004;2024-02-15T05:37:47;15.50;;;7.40;;
56567;SDS011;42456;49.956;20.004;2024-02-15T05:40:13;15.20;;;7.10;;
56567;SDS011;42456;49.956;20.004;2024-02-15T05:42:44;16.90;;;7.10;;
56567;SDS011;42456;49.956;20.004;2024-02-15T05:48:00;15.10;;;7.10;;
56567;SDS011;42456;49.956;20.004;2024-02-15T05:50:29;19.00;;;7.60;;
56567;SDS011;42456;49.956;20.004;2024-02-15T05:52:58;16.40;;;7.80;;
56567;SDS011;42456;49.956;20.004;2024-02-15T05:55:25;17.40;;;7.80;;
56567;SDS011;42456;49.956;20.004;2024-02-15T05:57:53;14.30;;;7.40;;
56567;SDS011;42456;49.956;20.004;2024-02-15T06:00:20;17.10;;;7.50;;
56567;SDS011;42456;49.956;20.004;2024-02-15T06:02:49;15.80;;;7.00;;
56567;SDS011;42456;49.956;20.004;2024-02-15T06:05:17;14.50;;;7.00;;
56567;SDS011;42456;49.956;20.004;2024-02-15T06:07:45;15.70;;;7.60;;
56567;SDS011;42456;49.956;20.004;2024-02-15T06:10:13;16.70;;;7.10;;
56567;SDS011;42456;49.956;20.004;2024-02-15T06:12:42;16.70;;;7.10;;
56567;SDS011;42456;49.956;20.004;2024-02-15T06:15:09;16.80;;;6.80;;
56567;SDS011;42456;49.956;20.004;2024-02-15T06:17:43;14.10;;;6.70;;
56567;SDS011;42456;49.956;20.004;2024-02-15T06:20:11;17.10;;;6.60;;
56567;SDS011;42456;49.956;20.004;2024-02-15T06:22:40;15.50;;;6.50;;
56567;SDS011;42456;49.956;20.004;2024-02-15T06:25:08;15.30;;;6.60;;
56567;SDS011;42456;49.956;20.004;2024-02-15T06:27:37;13.90;;;6.60;;
56567;SDS011;42456;49.956;20.004;2024-02-15T06:30:08;15.60;;;6.40;;
56567;SDS011;42456;49.956;20.004;2024-02-15T06:32:51;15.80;;;6.90;;
56567;SDS011;42456;49.956;20.004;2024-02-15T06:35:32;15.00;;;6.60;;
56567;SDS011;42456;49.956;20.004;2024-02-15T06:38:13;13.40;;;6.70;;
56567;SDS011;42456;49.956;20.004;2024-02-15T06:40:54;14.80;;;6.90;;
56567;SDS011;42456;49.956;20.004;2024-02-15T06:43:21;17.00;;;7.80;;
56567;SDS011;42456;49.956;20.004;2024-02-15T06:45:47;15.30;;;7.50;;
56567;SDS011;42456;49.956;20.004;2024-02-15T06:50:47;11.30;;;6.00;;
56567;SDS011;42456;49.956;20.004;2024-02-15T06:53:15;13.50;;;6.20;;
56567;SDS011;42456;49.956;20.004;2024-02-15T06:55:42;14.60;;;6.80;;
56567;SDS011;42456;49.956;20.004;2024-02-15T06:58:09;14.90;;;6.80;;
56567;SDS011;42456;49.956;20.004;2024-02-15T07:00:39;11.80;;;6.00;;
56567;SDS011;42456;49.956;20.004;2024-02-15T07:03:06;12.90;;;5.80;;
56567;SDS011;42456;49.956;20.004;2024-02-15T07:05:34;15.20;;;6.40;;
56567;SDS011;42456;49.956;20.004;2024-02-15T07:08:01;13.20;;;6.40;;
56567;SDS011;42456;49.956;20.004;2024-02-15T07:10:28;13.90;;;6.30;;
56567;SDS011;42456;49.956;20.004;2024-02-15T07:12:57;15.60;;;7.20;;
56567;SDS011;42456;49.956;20.004;2024-02-15T07:15:24;13.70;;;6.60;;
56567;SDS011;42456;49.956;20.004;2024-02-15T07:17:51;14.90;;;6.30;;
56567;SDS011;42456;49.956;20.004;2024-02-15T07:20:21;14.60;;;6.70;;
56567;SDS011;42456;49.956;20.004;2024-02-15T07:22:49;15.10;;;6.80;;
56567;SDS011;42456;49.956;20.004;2024-02-15T07:25:16;17.10;;;6.50;;
56567;SDS011;42456;49.956;20.004;2024-02-15T07:27:44;13.10;;;6.20;;
56567;SDS011;42456;49.956;20.004;2024-02-15T07:30:11;15.60;;;5.80;;
56567;SDS011;42456;49.956;20.004;2024-02-15T07:32:39;14.10;;;5.80;;
56567;SDS011;42456;49.956;20.004;2024-02-15T07:35:08;13.30;;;6.30;;
56567;SDS011;42456;49.956;20.004;2024-02-15T07:37:35;13.10;;;5.80;;
56567;SDS011;42456;49.956;20.004;2024-02-15T07:40:02;12.50;;;6.10;;
56567;SDS011;42456;49.956;20.004;2024-02-15T07:42:34;12.10;;;5.10;;
56567;SDS011;42456;49.956;20.004;2024-02-15T07:45:01;14.30;;;5.80;;
56567;SDS011;42456;49.956;20.004;2024-02-15T07:47:28;14.80;;;6.30;;
56567;SDS011;42456;49.956;20.004;2024-02-15T07:49:59;14.00;;;5.90;;
56567;SDS011;42456;49.956;20.004;2024-02-15T07:52:26;13.60;;;6.00;;
56567;SDS011;42456;49.956;20.004;2024-02-15T07:54:55;16.20;;;6.30;;
56567;SDS011;42456;49.956;20.004;2024-02-15T07:57:22;12.90;;;5.80;;
56567;SDS011;42456;49.956;20.004;2024-02-15T07:59:49;12.10;;;5.80;;
56567;SDS011;42456;49.956;20.004;2024-02-15T08:02:16;14.30;;;5.90;;
56567;SDS011;42456;49.956;20.004;2024-02-15T08:04:44;13.90;;;5.60;;
56567;SDS011;42456;49.956;20.004;2024-02-15T08:07:12;11.30;;;5.80;;
56567;SDS011;42456;49.956;20.004;2024-02-15T08:09:40;13.20;;;6.00;;
56567;SDS011;42456;49.956;20.004;2024-02-15T08:12:09;10.70;;;5.10;;
56567;SDS011;42456;49.956;20.004;2024-02-15T08:14:36;12.80;;;6.20;;
56567;SDS011;42456;49.956;20.004;2024-02-15T08:17:03;11.90;;;5.90;;
56567;SDS011;42456;49.956;20.004;2024-02-15T08:19:30;13.20;;;5.70;;
56567;SDS011;42456;49.956;20.004;2024-02-15T08:21:57;11.40;;;5.70;;
56567;SDS011;42456;49.956;20.004;2024-02-15T08:24:23;11.50;;;5.50;;
56567;SDS011;42456;49.956;20.004;2024-02-15T08:26:51;14.30;;;5.40;;
56567;SDS011;42456;49.956;20.004;2024-02-15T08:29:19;11.20;;;5.50;;
56567;SDS011;42456;49.956;20.004;2024-02-15T08:31:46;11.70;;;5.70;;
56567;SDS011;42456;49.956;20.004;2024-02-15T08:34:15;12.80;;;5.20;;
56567;SDS011;42456;49.956;20.004;2024-02-15T08:36:44;11.00;;;5.50;;
56567;SDS011;42456;49.956;20.004;2024-02-15T08:39:11;12.20;;;5.50;;
56567;SDS011;42456;49.956;20.004;2024-02-15T08:41:39;11.40;;;5.70;;
56567;SDS011;42456;49.956;20.004;2024-02-15T08:44:06;13.20;;;5.90;;
56567;SDS011;42456;49.956;20.004;2024-02-15T08:46:38;12.70;;;6.30;;
56567;SDS011;42456;49.956;20.004;2024-02-15T08:49:05;11.30;;;5.70;;
56567;SDS011;42456;49.956;20.004;2024-02-15T08:51:32;12.20;;;5.50;;
56567;SDS011;42456;49.956;20.004;2024-02-15T08:53:59;12.10;;;6.00;;
56567;SDS011;42456;49.956;20.004;2024-02-15T08:56:26;11.00;;;5.10;;
56567;SDS011;42456;49.956;20.004;2024-02-15T08:58:53;11.70;;;5.30;;
56567;SDS011;42456;49.956;20.004;2024-02-15T09:01:20;9.70;;;5.00;;
56567;SDS011;42456;49.956;20.004;2024-02-15T09:03:47;11.90;;;5.10;;
56567;SDS011;42456;49.956;20.004;2024-02-15T09:06:14;10.30;;;5.50;;
56567;SDS011;42456;49.956;20.004;2024-02-15T09:08:42;10.90;;;5.00;;
56567;SDS011;42456;49.956;20.004;2024-02-15T09:11:09;13.80;;;5.60;;
56567;SDS011;42456;49.956;20.004;2024-02-15T09:13:39;18.80;;;8.30;;
56567;SDS011;42456;49.956;20.004;2024-02-15T09:16:05;26.40;;;13.10;;
56567;SDS011;42456;49.956;20.004;2024-02-15T09:18:33;14.10;;;6.20;;
56567;SDS011;42456;49.956;20.004;2024-02-15T09:21:00;14.80;;;6.70;;
56567;SDS011;42456;49.956;20.004;2024-02-15T09:23:27;12.80;;;6.30;;
56567;SDS011;42456;49.956;20.004;2024-02-15T09:25:54;15.10;;;7.20;;
56567;SDS011;42456;49.956;20.004;2024-02-15T09:28:21;13.90;;;6.60;;
56567;SDS011;42456;49.956;20.004;2024-02-15T09:33:21;12.30;;;6.00;;
56567;SDS011;42456;49.956;20.004;2024-02-15T09:35:48;12.30;;;5.60;;
56567;SDS011;42456;49.956;20.004;2024-02-15T09:38:15;13.60;;;5.90;;
56567;SDS011;42456;49.956;20.004;2024-02-15T09:40:43;11.40;;;5.90;;
56567;SDS011;42456;49.956;20.004;2024-02-15T09:43:10;13.50;;;6.10;;
56567;SDS011;42456;49.956;20.004;2024-02-15T09:45:41;13.20;;;5.80;;
56567;SDS011;42456;49.956;20.004;2024-02-15T09:48:09;12.60;;;6.00;;
56567;SDS011;42456;49.956;20.004;2024-02-15T09:50:41;11.40;;;6.40;;
56567;SDS011;42456;49.956;20.004;2024-02-15T09:53:09;13.60;;;6.90;;
56567;SDS011;42456;49.956;20.004;2024-02-15T09:55:39;16.10;;;8.00;;
56567;SDS011;42456;49.956;20.004;2024-02-15T09:58:10;16.90;;;8.10;;
56567;SDS011;42456;49.956;20.004;2024-02-15T10:00:39;16.60;;;8.50;;
56567;SDS011;42456;49.956;20.004;2024-02-15T10:03:07;11.40;;;5.70;;
56567;SDS011;42456;49.956;20.004;2024-02-15T10:05:34;10.80;;;5.50;;
56567;SDS011;42456;49.956;20.004;2024-02-15T10:08:01;11.50;;;5.70;;
56567;SDS011;42456;49.956;20.004;2024-02-15T10:10:29;11.90;;;5.70;;
56567;SDS011;42456;49.956;20.004;2024-02-15T10:12:56;11.50;;;5.30;;
56567;SDS011;42456;49.956;20.004;2024-02-15T10:18:03;9.80;;;5.00;;
56567;SDS011;42456;49.956;20.004;2024-02-15T10:20:36;12.10;;;5.50;;
56567;SDS011;42456;49.956;20.004;2024-02-15T10:23:09;13.30;;;6.20;;
56567;SDS011;42456;49.956;20.004;2024-02-15T10:25:38;12.40;;;5.70;;
56567;SDS011;42456;49.956;20.004;2024-02-15T10:28:07;11.30;;;5.70;;
56567;SDS011;42456;49.956;20.004;2024-02-15T10:30:36;10.30;;;5.70;;
56567;SDS011;42456;49.956;20.004;2024-02-15T10:33:05;12.90;;;5.60;;
56567;SDS011;42456;49.956;20.004;2024-02-15T10:35:34;23.40;;;6.00;;
56567;SDS011;42456;49.956;20.004;2024-02-15T10:38:06;12.50;;;5.10;;
56567;SDS011;42456;49.956;20.004;2024-02-15T10:40:35;9.40;;;4.70;;
56567;SDS011;42456;49.956;20.004;2024-02-15T10:43:10;8.90;;;4.20;;
56567;SDS011;42456;49.956;20.004;2024-02-15T10:45:40;9.60;;;4.30;;
56567;SDS011;42456;49.956;20.004;2024-02-15T10:48:10;10.40;;;4.50;;
56567;SDS011;42456;49.956;20.004;2024-02-15T10:50:41;5.30;;;3.40;;
56567;SDS011;42456;49.956;20.004;2024-02-15T10:53:19;6.30;;;3.00;;
56567;SDS011;42456;49.956;20.004;2024-02-15T10:58:56;9.10;;;3.70;;
56567;SDS011;42456;49.956;20.004;2024-02-15T11:01:40;8.80;;;4.40;;
56567;SDS011;42456;49.956;20.004;2024-02-15T11:04:12;7.80;;;3.60;;
56567;SDS011;42456;49.956;20.004;2024-02-15T11:06:41;9.40;;;4.00;;
56567;SDS011;42456;49.956;20.004;2024-02-15T11:09:10;8.50;;;3.80;;
56567;SDS011;42456;49.956;20.004;2024-02-15T11:11:38;6.90;;;3.50;;
56567;SDS011;42456;49.956;20.004;2024-02-15T11:16:56;7.10;;;3.70;;
56567;SDS011;42456;49.956;20.004;2024-02-15T11:22:08;6.30;;;3.30;;
56567;SDS011;42456;49.956;20.004;2024-02-15T11:24:38;9.10;;;3.70;;
56567;SDS011;42456;49.956;20.004;2024-02-15T11:27:25;6.10;;;2.90;;
56567;SDS011;42456;49.956;20.004;2024-02-15T11:29:54;4.60;;;2.90;;
56567;SDS011;42456;49.956;20.004;2024-02-15T11:35:08;7.00;;;3.50;;
56567;SDS011;42456;49.956;20.004;2024-02-15T11:37:58;8.50;;;3.60;;
56567;SDS011;42456;49.956;20.004;2024-02-15T11:43:45;7.40;;;3.10;;
56567;SDS011;42456;49.956;20.004;2024-02-15T11:46:12;4.40;;;2.70;;
56567;SDS011;42456;49.956;20.004;2024-02-15T11:48:40;5.10;;;3.00;;
56567;SDS011;42456;49.956;20.004;2024-02-15T11:51:08;6.20;;;3.30;;
56567;SDS011;42456;49.956;20.004;2024-02-15T11:53:38;4.60;;;2.90;;
56567;SDS011;42456;49.956;20.004;2024-02-15T11:56:06;5.20;;;3.10;;
56567;SDS011;42456;49.956;20.004;2024-02-15T11:58:37;5.30;;;3.10;;
56567;SDS011;42456;49.956;20.004;2024-02-15T12:01:19;8.40;;;3.80;;
56567;SDS011;42456;49.956;20.004;2024-02-15T12:03:59;7.70;;;3.70;;
56567;SDS011;42456;49.956;20.004;2024-02-15T12:06:39;6.50;;;3.60;;
56567;SDS011;42456;49.956;20.004;2024-02-15T12:09:21;7.80;;;3.80;;
56567;SDS011;42456;49.956;20.004;2024-02-15T12:12:04;8.20;;;4.00;;
56567;SDS011;42456;49.956;20.004;2024-02-15T12:14:45;7.80;;;4.00;;
56567;SDS011;42456;49.956;20.004;2024-02-15T12:17:26;7.40;;;3.50;;
56567;SDS011;42456;49.956;20.004;2024-02-15T12:20:07;6.00;;;3.40;;
56567;SDS011;42456;49.956;20.004;2024-02-15T12:22:44;6.20;;;3.40;;
56567;SDS011;42456;49.956;20.004;2024-02-15T12:25:16;7.00;;;3.60;;
56567;SDS011;42456;49.956;20.004;2024-02-15T12:27:54;6.50;;;3.50;;
56567;SDS011;42456;49.956;20.004;2024-02-15T12:30:23;7.20;;;3.60;;
56567;SDS011;42456;49.956;20.004;2024-02-15T12:32:52;6.70;;;3.50;;
56567;SDS011;42456;49.956;20.004;2024-02-15T12:35:35;5.80;;;2.90;;
56567;SDS011;42456;49.956;20.004;2024-02-15T12:38:03;5.90;;;3.50;;
56567;SDS011;42456;49.956;20.004;2024-02-15T12:40:32;5.80;;;3.30;;
56567;SDS011;42456;49.956;20.004;2024-02-15T12:43:00;5.40;;;3.10;;
56567;SDS011;42456;49.956;20.004;2024-02-15T12:45:28;7.90;;;3.80;;
56567;SDS011;42456;49.956;20.004;2024-02-15T12:47:56;7.20;;;3.70;;
56567;SDS011;42456;49.956;20.004;2024-02-15T12:50:28;7.10;;;3.60;;
56567;SDS011;42456;49.956;20.004;2024-02-15T12:52:56;6.90;;;3.70;;
56567;SDS011;42456;49.956;20.004;2024-02-15T12:55:29;6.60;;;3.40;;
56567;SDS011;42456;49.956;20.004;2024-02-15T12:58:12;7.00;;;3.30;;
56567;SDS011;42456;49.956;20.004;2024-02-15T13:00:42;8.40;;;3.50;;
56567;SDS011;42456;49.956;20.004;2024-02-15T13:03:11;6.50;;;3.60;;
56567;SDS011;42456;49.956;20.004;2024-02-15T13:05:41;5.40;;;3.40;;
56567;SDS011;42456;49.956;20.004;2024-02-15T13:08:09;6.80;;;3.50;;
56567;SDS011;42456;49.956;20.004;2024-02-15T13:10:44;6.90;;;3.10;;
56567;SDS011;42456;49.956;20.004;2024-02-15T13:13:11;7.60;;;3.30;;
56567;SDS011;42456;49.956;20.004;2024-02-15T13:15:42;9.70;;;3.70;;
56567;SDS011;42456;49.956;20.004;2024-02-15T13:18:12;7.60;;;3.50;;
56567;SDS011;42456;49.956;20.004;2024-02-15T13:20:41;5.60;;;3.60;;
56567;SDS011;42456;49.956;20.004;2024-02-15T13:23:08;8.10;;;3.40;;
56567;SDS011;42456;49.956;20.004;2024-02-15T13:25:57;5.30;;;3.20;;
56567;SDS011;42456;49.956;20.004;2024-02-15T13:28:24;4.80;;;3.50;;
56567;SDS011;42456;49.956;20.004;2024-02-15T13:30:51;7.50;;;3.80;;
56567;SDS011;42456;49.956;20.004;2024-02-15T13:33:21;6.00;;;3.40;;
56567;SDS011;42456;49.956;20.004;2024-02-15T13:35:49;7.40;;;3.50;;
56567;SDS011;42456;49.956;20.004;2024-02-15T13:38:16;7.70;;;3.80;;
56567;SDS011;42456;49.956;20.004;2024-02-15T13:40:51;8.00;;;3.40;;
56567;SDS011;42456;49.956;20.004;2024-02-15T13:43:18;6.60;;;3.40;;
56567;SDS011;42456;49.956;20.004;2024-02-15T13:45:45;8.00;;;4.10;;
56567;SDS011;42456;49.956;20.004;2024-02-15T13:48:12;8.20;;;3.70;;
56567;SDS011;42456;49.956;20.004;2024-02-15T13:50:41;6.30;;;3.40;;
56567;SDS011;42456;49.956;20.004;2024-02-15T13:53:09;7.10;;;3.90;;
56567;SDS011;42456;49.956;20.004;2024-02-15T13:55:37;7.50;;;4.00;;
56567;SDS011;42456;49.956;20.004;2024-02-15T13:58:05;6.60;;;3.80;;
56567;SDS011;42456;49.956;20.004;2024-02-15T14:00:35;6.10;;;3.60;;
56567;SDS011;42456;49.956;20.004;2024-02-15T14:03:04;7.80;;;4.00;;
56567;SDS011;42456;49.956;20.004;2024-02-15T14:05:33;6.00;;;3.60;;
56567;SDS011;42456;49.956;20.004;2024-02-15T14:08:01;10.30;;;3.80;;
56567;SDS011;42456;49.956;20.004;2024-02-15T14:10:30;6.00;;;3.30;;
56567;SDS011;42456;49.956;20.004;2024-02-15T14:13:04;7.80;;;3.90;;
56567;SDS011;42456;49.956;20.004;2024-02-15T14:15:36;6.40;;;3.40;;
56567;SDS011;42456;49.956;20.004;2024-02-15T14:18:06;11.00;;;4.10;;
56567;SDS011;42456;49.956;20.004;2024-02-15T14:20:38;6.80;;;3.70;;
56567;SDS011;42456;49.956;20.004;2024-02-15T14:23:08;7.10;;;3.60;;
56567;SDS011;42456;49.956;20.004;2024-02-15T14:25:41;7.00;;;3.70;;
56567;SDS011;42456;49.956;20.004;2024-02-15T14:28:08;6.60;;;3.50;;
56567;SDS011;42456;49.956;20.004;2024-02-15T14:30:39;7.40;;;3.90;;
56567;SDS011;42456;49.956;20.004;2024-02-15T14:33:20;9.00;;;3.90;;
56567;SDS011;42456;49.956;20.004;2024-02-15T14:35:51;10.40;;;3.90;;
56567;SDS011;42456;49.956;20.004;2024-02-15T14:38:22;7.80;;;3.80;;
56567;SDS011;42456;49.956;20.004;2024-02-15T14:40:50;7.00;;;3.70;;
56567;SDS011;42456;49.956;20.004;2024-02-15T14:43:21;7.50;;;3.40;;
56567;SDS011;42456;49.956;20.004;2024-02-15T14:45:51;7.00;;;3.70;;
56567;SDS011;42456;49.956;20.004;2024-02-15T14:48:18;8.70;;;4.10;;
56567;SDS011;42456;49.956;20.004;2024-02-15T14:50:47;7.10;;;3.70;;
56567;SDS011;42456;49.956;20.004;2024-02-15T14:53:18;9.60;;;3.90;;
56567;SDS011;42456;49.956;20.004;2024-02-15T14:55:45;7.70;;;3.60;;
56567;SDS011;42456;49.956;20.004;2024-02-15T14:58:13;8.40;;;3.80;;
56567;SDS011;42456;49.956;20.004;2024-02-15T15:00:44;9.70;;;4.20;;
56567;SDS011;42456;49.956;20.004;2024-02-15T15:03:14;7.80;;;3.80;;
56567;SDS011;42456;49.956;20.004;2024-02-15T15:05:43;12.10;;;4.10;;